sensor_id;sensor_type;location;lat;lon;timestamp;pressure;altitude;pressure_sealevel;temperature;humidity
42621;BME280;28252;53.336;-6.298;2023-06-14T00:00:06;101156.25;;;26.22;89.64
42621;BME280;28252;53.336;-6.298;2023-06-14T00:00:40;101154.34;;;26.23;89.80
42621;BME280;28252;53.336;-6.298;2023-06-14T00:01:17;101154.53;;;26.21;89.91
42621;BME280;28252;53.336;-6.298;2023-06-14T00:01:53;101156.25;;;26.22;89.56
42621;BME280;28252;53.336;-6.298;2023-06-14T00:02:24;101151.81;;;26.21;89.87
42621;BME280;28252;53.336;-6.298;2023-06-14T00:02:57;101150.78;;;26.22;89.72
42621;BME280;28252;53.336;-6.298;2023-06-14T00:03:34;101154.53;;;26.21;90.22
42621;BME280;28252;53.336;-6.298;2023-06-14T00:04:05;101161.69;;;26.22;90.04
42621;BME280;28252;53.336;-6.298;2023-06-14T00:04:39;101158.97;;;26.22;90.31
42621;BME280;28252;53.336;-6.298;2023-06-14T00:05:14;101161.69;;;26.22;90.34
42621;BME280;28252;53.336;-6.298;2023-06-14T00:05:45;101157.06;;;26.23;90.14
42621;BME280;28252;53.336;-6.298;2023-06-14T00:06:19;101163.38;;;26.23;90.15
42621;BME280;28252;53.336;-6.298;2023-06-14T00:06:50;101163.38;;;26.23;90.46
42621;BME280;28252;53.336;-6.298;2023-06-14T00:07:27;101161.50;;;26.24;90.13
42621;BME280;28252;53.336;-6.298;2023-06-14T00:08:06;101168.19;;;26.21;90.35
42621;BME280;28252;53.336;-6.298;2023-06-14T00:08:38;101160.63;;;26.23;90.23
42621;BME280;28252;53.336;-6.298;2023-06-14T00:09:12;101160.00;;;26.21;90.49
42621;BME280;28252;53.336;-6.298;2023-06-14T00:12:14;101162.72;;;26.21;90.98
42621;BME280;28252;53.336;-6.298;2023-06-14T00:12:47;101165.47;;;26.21;90.42
42621;BME280;28252;53.336;-6.298;2023-06-14T00:13:23;101162.53;;;26.23;91.09
42621;BME280;28252;53.336;-6.298;2023-06-14T00:13:58;101156.44;;;26.21;90.80
42621;BME280;28252;53.336;-6.298;2023-06-14T00:14:33;101161.69;;;26.22;90.72
42621;BME280;28252;53.336;-6.298;2023-06-14T00:15:05;101165.47;;;26.21;90.95
42621;BME280;28252;53.336;-6.298;2023-06-14T00:15:36;101164.63;;;26.21;90.64
42621;BME280;28252;53.336;-6.298;2023-06-14T00:16:07;101162.72;;;26.21;90.75
42621;BME280;28252;53.336;-6.298;2023-06-14T00:16:41;101165.47;;;26.21;90.82
42621;BME280;28252;53.336;-6.298;2023-06-14T00:17:15;101165.47;;;26.21;90.88
42621;BME280;28252;53.336;-6.298;2023-06-14T00:17:51;101163.75;;;26.20;91.15
42621;BME280;28252;53.336;-6.298;2023-06-14T00:18:24;101160.00;;;26.21;91.18
42621;BME280;28252;53.336;-6.298;2023-06-14T00:19:00;101162.72;;;26.21;91.28
42621;BME280;28252;53.336;-6.298;2023-06-14T00:19:34;101159.16;;;26.21;91.39
42621;BME280;28252;53.336;-6.298;2023-06-14T00:20:09;101172.63;;;26.22;91.30
42621;BME280;28252;53.336;-6.298;2023-06-14T00:20:43;101172.63;;;26.22;91.55
42621;BME280;28252;53.336;-6.298;2023-06-14T00:21:14;101165.47;;;26.21;91.61
42621;BME280;28252;53.336;-6.298;2023-06-14T00:21:49;101167.16;;;26.22;91.45
42621;BME280;28252;53.336;-6.298;2023-06-14T00:22:23;101165.25;;;26.23;91.64
42621;BME280;28252;53.336;-6.298;2023-06-14T00:23:02;101166.28;;;26.22;91.32
42621;BME280;28252;53.336;-6.298;2023-06-14T00:23:35;101165.25;;;26.23;91.53
42621;BME280;28252;53.336;-6.298;2023-06-14T00:24:11;101157.28;;;26.21;91.47
42621;BME280;28252;53.336;-6.298;2023-06-14T00:24:44;101169.88;;;26.22;91.34
42621;BME280;28252;53.336;-6.298;2023-06-14T00:25:17;101169.03;;;26.22;91.31
42621;BME280;28252;53.336;-6.298;2023-06-14T00:25:52;101164.63;;;26.21;91.81
42621;BME280;28252;53.336;-6.298;2023-06-14T00:26:23;101164.44;;;26.22;91.94
42621;BME280;28252;53.336;-6.298;2023-06-14T00:26:54;101164.44;;;26.22;91.46
42621;BME280;28252;53.336;-6.298;2023-06-14T00:27:26;101162.72;;;26.21;91.58
42621;BME280;28252;53.336;-6.298;2023-06-14T00:27:59;101165.47;;;26.21;91.98
42621;BME280;28252;53.336;-6.298;2023-06-14T00:28:30;101168.19;;;26.21;91.99
42621;BME280;28252;53.336;-6.298;2023-06-14T00:29:05;101165.47;;;26.21;92.03
42621;BME280;28252;53.336;-6.298;2023-06-14T00:30:51;101165.47;;;26.21;92.08
42621;BME280;28252;53.336;-6.298;2023-06-14T00:31:24;101160.00;;;26.21;91.90
42621;BME280;28252;53.336;-6.298;2023-06-14T00:32:02;101165.47;;;26.21;91.79
42621;BME280;28252;53.336;-6.298;2023-06-14T00:32:35;101161.03;;;26.20;91.86
42621;BME280;28252;53.336;-6.298;2023-06-14T00:33:08;101161.91;;;26.21;91.74
42621;BME280;28252;53.336;-6.298;2023-06-14T00:33:39;101169.22;;;26.20;92.03
42621;BME280;28252;53.336;-6.298;2023-06-14T00:34:10;101163.75;;;26.20;91.83
42621;BME280;28252;53.336;-6.298;2023-06-14T00:34:50;101163.75;;;26.20;92.36
42621;BME280;28252;53.336;-6.298;2023-06-14T00:35:23;101166.50;;;26.20;92.09
42621;BME280;28252;53.336;-6.298;2023-06-14T00:35:58;101169.22;;;26.20;92.34
42621;BME280;28252;53.336;-6.298;2023-06-14T00:36:29;101159.34;;;26.19;92.34
42621;BME280;28252;53.336;-6.298;2023-06-14T00:37:02;101161.03;;;26.20;92.42
42621;BME280;28252;53.336;-6.298;2023-06-14T00:37:38;101161.03;;;26.20;92.46
42621;BME280;28252;53.336;-6.298;2023-06-14T00:38:09;101163.75;;;26.20;92.43
42621;BME280;28252;53.336;-6.298;2023-06-14T00:38:49;101160.19;;;26.20;92.46
42621;BME280;28252;53.336;-6.298;2023-06-14T00:39:20;101162.94;;;26.20;92.54
42621;BME280;28252;53.336;-6.298;2023-06-14T00:39:51;101162.09;;;26.19;92.50
42621;BME280;28252;53.336;-6.298;2023-06-14T00:40:24;101155.78;;;26.19;92.51
42621;BME280;28252;53.336;-6.298;2023-06-14T00:42:06;101162.94;;;26.20;92.58
42621;BME280;28252;53.336;-6.298;2023-06-14T00:42:39;101164.81;;;26.19;92.18
42621;BME280;28252;53.336;-6.298;2023-06-14T00:43:12;101157.66;;;26.18;92.17
42621;BME280;28252;53.336;-6.298;2023-06-14T00:43:47;101159.56;;;26.18;92.60
42621;BME280;28252;53.336;-6.298;2023-06-14T00:44:24;101160.38;;;26.18;92.33
42621;BME280;28252;53.336;-6.298;2023-06-14T00:44:55;101162.09;;;26.19;92.41
42621;BME280;28252;53.336;-6.298;2023-06-14T00:45:28;101159.34;;;26.19;92.42
42621;BME280;28252;53.336;-6.298;2023-06-14T00:46:02;101165.84;;;26.18;92.66
42621;BME280;28252;53.336;-6.298;2023-06-14T00:46:37;101157.66;;;26.18;92.46
42621;BME280;28252;53.336;-6.298;2023-06-14T00:47:15;101160.38;;;26.18;92.74
42621;BME280;28252;53.336;-6.298;2023-06-14T00:47:48;101158.53;;;26.19;92.48
42621;BME280;28252;53.336;-6.298;2023-06-14T00:48:21;101156.00;;;26.17;92.29
42621;BME280;28252;53.336;-6.298;2023-06-14T00:48:55;101156.81;;;26.18;92.35
42621;BME280;28252;53.336;-6.298;2023-06-14T00:49:26;101165.00;;;26.18;92.46
42621;BME280;28252;53.336;-6.298;2023-06-14T00:49:59;101156.00;;;26.17;92.78
42621;BME280;28252;53.336;-6.298;2023-06-14T00:50:33;101154.94;;;26.18;92.52
42621;BME280;28252;53.336;-6.298;2023-06-14T00:51:09;101157.84;;;26.17;92.75
42621;BME280;28252;53.336;-6.298;2023-06-14T00:51:46;101157.84;;;26.17;92.61
42621;BME280;28252;53.336;-6.298;2023-06-14T00:52:25;101158.72;;;26.17;92.56
42621;BME280;28252;53.336;-6.298;2023-06-14T00:52:56;101164.19;;;26.17;92.63
42621;BME280;28252;53.336;-6.298;2023-06-14T00:53:29;101162.47;;;26.16;92.58
42621;BME280;28252;53.336;-6.298;2023-06-14T00:54:06;101152.41;;;26.17;92.54
42621;BME280;28252;53.336;-6.298;2023-06-14T00:54:40;101168.78;;;26.17;92.62
42621;BME280;28252;53.336;-6.298;2023-06-14T00:55:12;101161.44;;;26.17;92.79
42621;BME280;28252;53.336;-6.298;2023-06-14T00:55:48;101162.47;;;26.16;92.36
42621;BME280;28252;53.336;-6.298;2023-06-14T00:56:23;101163.31;;;26.17;92.87
42621;BME280;28252;53.336;-6.298;2023-06-14T00:56:55;101161.66;;;26.16;92.88
42621;BME280;28252;53.336;-6.298;2023-06-14T00:57:29;101155.31;;;26.15;92.45
42621;BME280;28252;53.336;-6.298;2023-06-14T00:58:02;101162.47;;;26.16;92.69
42621;BME280;28252;53.336;-6.298;2023-06-14T00:58:36;101163.50;;;26.15;92.45
42621;BME280;28252;53.336;-6.298;2023-06-14T00:59:09;101156.19;;;26.16;92.72
42621;BME280;28252;53.336;-6.298;2023-06-14T00:59:47;101158.06;;;26.15;92.71
42621;BME280;28252;53.336;-6.298;2023-06-14T01:00:22;101167.09;;;26.16;92.52
42621;BME280;28252;53.336;-6.298;2023-06-14T01:00:55;101160.78;;;26.15;92.65
42621;BME280;28252;53.336;-6.298;2023-06-14T01:01:30;101160.78;;;26.15;93.01
42621;BME280;28252;53.336;-6.298;2023-06-14T01:02:13;101161.66;;;26.16;92.82
42621;BME280;28252;53.336;-6.298;2023-06-14T01:02:52;101161.66;;;26.16;92.85
42621;BME280;28252;53.336;-6.298;2023-06-14T01:03:28;101156.38;;;26.14;92.60
42621;BME280;28252;53.336;-6.298;2023-06-14T01:04:01;101154.50;;;26.15;92.88
42621;BME280;28252;53.336;-6.298;2023-06-14T01:04:34;101157.22;;;26.15;92.97
42621;BME280;28252;53.336;-6.298;2023-06-14T01:05:10;101161.84;;;26.14;92.64
42621;BME280;28252;53.336;-6.298;2023-06-14T01:05:45;101158.28;;;26.14;92.68
42621;BME280;28252;53.336;-6.298;2023-06-14T01:06:38;101163.75;;;26.14;92.68
42621;BME280;28252;53.336;-6.298;2023-06-14T01:08:03;101166.47;;;26.14;92.96
42621;BME280;28252;53.336;-6.298;2023-06-14T01:08:50;101160.16;;;26.13;93.08
42621;BME280;28252;53.336;-6.298;2023-06-14T01:09:32;101160.16;;;26.13;93.24
42621;BME280;28252;53.336;-6.298;2023-06-14T01:11:12;101168.34;;;26.13;93.23
42621;BME280;28252;53.336;-6.298;2023-06-14T01:11:49;101165.59;;;26.13;93.27
42621;BME280;28252;53.336;-6.298;2023-06-14T01:12:31;101162.03;;;26.13;92.78
42621;BME280;28252;53.336;-6.298;2023-06-14T01:13:41;101166.66;;;26.12;93.21
42621;BME280;28252;53.336;-6.298;2023-06-14T01:14:18;101163.06;;;26.12;93.21
42621;BME280;28252;53.336;-6.298;2023-06-14T01:14:50;101170.44;;;26.11;93.21
42621;BME280;28252;53.336;-6.298;2023-06-14T01:15:23;101166.66;;;26.12;93.49
42621;BME280;28252;53.336;-6.298;2023-06-14T01:15:57;101163.06;;;26.12;92.98
42621;BME280;28252;53.336;-6.298;2023-06-14T01:16:32;101163.06;;;26.12;93.27
42621;BME280;28252;53.336;-6.298;2023-06-14T01:17:11;101161.22;;;26.12;93.38
42621;BME280;28252;53.336;-6.298;2023-06-14T01:17:52;101166.66;;;26.12;93.38
42621;BME280;28252;53.336;-6.298;2023-06-14T01:18:24;101164.13;;;26.11;93.62
42621;BME280;28252;53.336;-6.298;2023-06-14T01:18:58;101160.34;;;26.12;93.63
42621;BME280;28252;53.336;-6.298;2023-06-14T01:19:35;101159.50;;;26.11;93.42
42621;BME280;28252;53.336;-6.298;2023-06-14T01:20:06;101160.34;;;26.12;93.69
42621;BME280;28252;53.336;-6.298;2023-06-14T01:20:43;101164.97;;;26.11;93.47
42621;BME280;28252;53.336;-6.298;2023-06-14T01:21:27;101164.97;;;26.11;93.44
42621;BME280;28252;53.336;-6.298;2023-06-14T01:22:01;101159.50;;;26.11;93.51
42621;BME280;28252;53.336;-6.298;2023-06-14T01:22:35;101164.13;;;26.11;93.81
42621;BME280;28252;53.336;-6.298;2023-06-14T01:23:08;101158.66;;;26.11;93.61
42621;BME280;28252;53.336;-6.298;2023-06-14T01:23:39;101163.25;;;26.10;93.98
42621;BME280;28252;53.336;-6.298;2023-06-14T01:24:15;101174.19;;;26.10;93.63
42621;BME280;28252;53.336;-6.298;2023-06-14T01:24:50;101174.19;;;26.10;93.67
42621;BME280;28252;53.336;-6.298;2023-06-14T01:25:27;101174.19;;;26.10;93.89
42621;BME280;28252;53.336;-6.298;2023-06-14T01:25:59;101174.19;;;26.10;93.67
42621;BME280;28252;53.336;-6.298;2023-06-14T01:26:30;101170.63;;;26.09;94.00
42621;BME280;28252;53.336;-6.298;2023-06-14T01:27:04;101166.00;;;26.10;93.79
42621;BME280;28252;53.336;-6.298;2023-06-14T01:27:36;101166.00;;;26.10;93.82
42621;BME280;28252;53.336;-6.298;2023-06-14T01:28:07;101176.09;;;26.09;93.62
42621;BME280;28252;53.336;-6.298;2023-06-14T01:28:44;101178.81;;;26.09;94.00
42621;BME280;28252;53.336;-6.298;2023-06-14T01:29:27;101176.09;;;26.09;93.68
42621;BME280;28252;53.336;-6.298;2023-06-14T01:30:10;101172.50;;;26.09;94.16
42621;BME280;28252;53.336;-6.298;2023-06-14T01:30:45;101178.81;;;26.09;93.90
42621;BME280;28252;53.336;-6.298;2023-06-14T01:31:20;101172.50;;;26.09;93.80
42621;BME280;28252;53.336;-6.298;2023-06-14T01:31:59;101181.72;;;26.08;94.19
42621;BME280;28252;53.336;-6.298;2023-06-14T01:32:37;101176.28;;;26.08;93.78
42621;BME280;28252;53.336;-6.298;2023-06-14T01:33:15;101170.81;;;26.08;93.83
42621;BME280;28252;53.336;-6.298;2023-06-14T01:33:49;101177.34;;;26.07;94.08
42621;BME280;28252;53.336;-6.298;2023-06-14T01:34:23;101169.16;;;26.07;94.25
42621;BME280;28252;53.336;-6.298;2023-06-14T01:34:55;101175.44;;;26.07;93.90
42621;BME280;28252;53.336;-6.298;2023-06-14T01:35:32;101175.44;;;26.07;93.91
42621;BME280;28252;53.336;-6.298;2023-06-14T01:36:03;101178.16;;;26.07;93.87
42621;BME280;28252;53.336;-6.298;2023-06-14T01:36:42;101180.06;;;26.07;93.92
42621;BME280;28252;53.336;-6.298;2023-06-14T01:37:16;101174.59;;;26.07;94.24
42621;BME280;28252;53.336;-6.298;2023-06-14T01:37:50;101174.59;;;26.07;94.26
42621;BME280;28252;53.336;-6.298;2023-06-14T01:38:25;101179.19;;;26.06;94.44
42621;BME280;28252;53.336;-6.298;2023-06-14T01:39:04;101175.63;;;26.06;94.55
42621;BME280;28252;53.336;-6.298;2023-06-14T01:39:43;101178.38;;;26.06;94.09
42621;BME280;28252;53.336;-6.298;2023-06-14T01:40:19;101173.94;;;26.05;94.32
42621;BME280;28252;53.336;-6.298;2023-06-14T01:40:56;101183.81;;;26.06;94.18
42621;BME280;28252;53.336;-6.298;2023-06-14T01:41:32;101182.13;;;26.05;94.22
42621;BME280;28252;53.336;-6.298;2023-06-14T01:42:07;101182.13;;;26.05;94.71
42621;BME280;28252;53.336;-6.298;2023-06-14T01:42:41;101177.72;;;26.04;94.25
42621;BME280;28252;53.336;-6.298;2023-06-14T01:43:14;101183.19;;;26.04;94.68
42621;BME280;28252;53.336;-6.298;2023-06-14T01:43:49;101176.66;;;26.05;94.64
42621;BME280;28252;53.336;-6.298;2023-06-14T01:44:25;101177.72;;;26.04;94.22
42621;BME280;28252;53.336;-6.298;2023-06-14T01:45:00;101176.03;;;26.03;94.30
42621;BME280;28252;53.336;-6.298;2023-06-14T01:45:37;101185.09;;;26.03;94.33
42621;BME280;28252;53.336;-6.298;2023-06-14T01:46:13;101178.75;;;26.03;94.84
42621;BME280;28252;53.336;-6.298;2023-06-14T01:46:45;101184.22;;;26.03;94.57
42621;BME280;28252;53.336;-6.298;2023-06-14T01:47:19;101185.91;;;26.04;94.59
42621;BME280;28252;53.336;-6.298;2023-06-14T01:47:53;101185.09;;;26.03;94.76
42621;BME280;28252;53.336;-6.298;2023-06-14T01:48:27;101177.09;;;26.02;94.29
42621;BME280;28252;53.336;-6.298;2023-06-14T01:49:00;101179.81;;;26.02;94.38
42621;BME280;28252;53.336;-6.298;2023-06-14T01:49:34;101179.81;;;26.02;94.82
42621;BME280;28252;53.336;-6.298;2023-06-14T01:50:10;101176.22;;;26.01;94.31
42621;BME280;28252;53.336;-6.298;2023-06-14T01:50:47;101171.63;;;26.02;94.55
42621;BME280;28252;53.336;-6.298;2023-06-14T01:51:24;101181.69;;;26.01;94.81
42621;BME280;28252;53.336;-6.298;2023-06-14T01:51:59;101180.66;;;26.02;94.41
42621;BME280;28252;53.336;-6.298;2023-06-14T01:52:32;101182.53;;;26.02;94.79
42621;BME280;28252;53.336;-6.298;2023-06-14T01:53:09;101180.00;;;26.00;94.47
42621;BME280;28252;53.336;-6.298;2023-06-14T01:53:43;101175.38;;;26.01;94.66
42621;BME280;28252;53.336;-6.298;2023-06-14T01:54:15;101175.38;;;26.01;94.70
42621;BME280;28252;53.336;-6.298;2023-06-14T01:54:46;101182.53;;;26.02;94.87
42621;BME280;28252;53.336;-6.298;2023-06-14T01:55:20;101176.41;;;26.00;94.78
42621;BME280;28252;53.336;-6.298;2023-06-14T01:55:57;101179.16;;;26.00;95.01
42621;BME280;28252;53.336;-6.298;2023-06-14T01:56:29;101172.66;;;26.01;94.41
42621;BME280;28252;53.336;-6.298;2023-06-14T01:57:03;101180.84;;;26.01;94.50
42621;BME280;28252;53.336;-6.298;2023-06-14T01:57:39;101174.56;;;26.00;95.00
42621;BME280;28252;53.336;-6.298;2023-06-14T01:58:15;101175.59;;;25.99;94.83
42621;BME280;28252;53.336;-6.298;2023-06-14T01:58:53;101173.69;;;26.00;94.78
42621;BME280;28252;53.336;-6.298;2023-06-14T01:59:27;101179.16;;;26.00;94.78
42621;BME280;28252;53.336;-6.298;2023-06-14T02:00:04;101172.03;;;25.99;95.06
42621;BME280;28252;53.336;-6.298;2023-06-14T02:00:45;101172.03;;;25.99;94.54
42621;BME280;28252;53.336;-6.298;2023-06-14T02:01:21;101176.59;;;25.98;95.16
42621;BME280;28252;53.336;-6.298;2023-06-14T02:01:57;101177.47;;;25.99;95.07
42621;BME280;28252;53.336;-6.298;2023-06-14T02:02:30;101182.94;;;25.99;95.07
42621;BME280;28252;53.336;-6.298;2023-06-14T02:03:01;101171.16;;;25.98;95.10
42621;BME280;28252;53.336;-6.298;2023-06-14T02:03:36;101177.47;;;25.99;94.88
42621;BME280;28252;53.336;-6.298;2023-06-14T02:04:10;101172.03;;;25.99;94.71
42621;BME280;28252;53.336;-6.298;2023-06-14T02:04:46;101169.28;;;25.99;94.73
42621;BME280;28252;53.336;-6.298;2023-06-14T02:05:18;101173.03;;;25.98;94.91
42621;BME280;28252;53.336;-6.298;2023-06-14T02:05:54;101176.59;;;25.98;94.93
42621;BME280;28252;53.336;-6.298;2023-06-14T02:06:29;101175.78;;;25.98;95.11
42621;BME280;28252;53.336;-6.298;2023-06-14T02:07:04;101174.75;;;25.99;95.18
42621;BME280;28252;53.336;-6.298;2023-06-14T02:07:36;101175.78;;;25.98;94.74
42621;BME280;28252;53.336;-6.298;2023-06-14T02:08:11;101179.34;;;25.98;94.98
42621;BME280;28252;53.336;-6.298;2023-06-14T02:08:45;101179.56;;;25.97;94.82
42621;BME280;28252;53.336;-6.298;2023-06-14T02:09:18;101178.50;;;25.98;95.34
42621;BME280;28252;53.336;-6.298;2023-06-14T02:09:49;101175.78;;;25.98;94.72
42621;BME280;28252;53.336;-6.298;2023-06-14T02:10:22;101178.50;;;25.98;94.91
42621;BME280;28252;53.336;-6.298;2023-06-14T02:10:53;101176.59;;;25.98;95.07
42621;BME280;28252;53.336;-6.298;2023-06-14T02:11:29;101181.22;;;25.98;95.10
42621;BME280;28252;53.336;-6.298;2023-06-14T02:12:01;101175.78;;;25.98;95.28
42621;BME280;28252;53.336;-6.298;2023-06-14T02:12:32;101178.69;;;25.96;95.20
42621;BME280;28252;53.336;-6.298;2023-06-14T02:13:07;101182.28;;;25.97;94.84
42621;BME280;28252;53.336;-6.298;2023-06-14T02:13:42;101176.84;;;25.97;95.10
42621;BME280;28252;53.336;-6.298;2023-06-14T02:15:38;101177.88;;;25.96;94.95
42621;BME280;28252;53.336;-6.298;2023-06-14T02:16:09;101177.88;;;25.96;95.11
42621;BME280;28252;53.336;-6.298;2023-06-14T02:16:43;101177.88;;;25.96;95.08
42621;BME280;28252;53.336;-6.298;2023-06-14T02:17:22;101187.94;;;25.95;94.91
42621;BME280;28252;53.336;-6.298;2023-06-14T02:17:56;101182.50;;;25.95;95.30
42621;BME280;28252;53.336;-6.298;2023-06-14T02:18:32;101175.28;;;25.94;94.83
42621;BME280;28252;53.336;-6.298;2023-06-14T02:19:05;101178.91;;;25.95;94.81
42621;BME280;28252;53.336;-6.298;2023-06-14T02:19:45;101184.50;;;25.93;95.11
42621;BME280;28252;53.336;-6.298;2023-06-14T02:20:16;101172.56;;;25.94;95.08
42621;BME280;28252;53.336;-6.298;2023-06-14T02:20:48;101175.28;;;25.94;95.34
42621;BME280;28252;53.336;-6.298;2023-06-14T02:21:21;101174.47;;;25.94;94.97
42621;BME280;28252;53.336;-6.298;2023-06-14T02:21:54;101179.91;;;25.94;94.96
42621;BME280;28252;53.336;-6.298;2023-06-14T02:22:29;101177.19;;;25.94;95.40
42621;BME280;28252;53.336;-6.298;2023-06-14T02:23:03;101178.03;;;25.94;95.23
42621;BME280;28252;53.336;-6.298;2023-06-14T02:23:36;101181.63;;;25.95;95.54
42621;BME280;28252;53.336;-6.298;2023-06-14T02:24:12;101180.75;;;25.94;95.09
42621;BME280;28252;53.336;-6.298;2023-06-14T02:24:48;101181.63;;;25.95;95.32
42621;BME280;28252;53.336;-6.298;2023-06-14T02:25:24;101185.22;;;25.95;95.02
42621;BME280;28252;53.336;-6.298;2023-06-14T02:25:55;101179.91;;;25.94;95.58
42621;BME280;28252;53.336;-6.298;2023-06-14T02:26:28;101186.22;;;25.94;95.51
42621;BME280;28252;53.336;-6.298;2023-06-14T02:27:02;101178.22;;;25.92;95.12
42621;BME280;28252;53.336;-6.298;2023-06-14T02:27:35;101179.06;;;25.93;95.10
42621;BME280;28252;53.336;-6.298;2023-06-14T02:28:08;101186.22;;;25.94;95.50
42621;BME280;28252;53.336;-6.298;2023-06-14T02:28:43;101174.47;;;25.94;95.08
42621;BME280;28252;53.336;-6.298;2023-06-14T02:33:14;101183.03;;;25.90;95.51
42621;BME280;28252;53.336;-6.298;2023-06-14T02:33:47;101184.06;;;25.89;95.56
42621;BME280;28252;53.336;-6.298;2023-06-14T02:34:18;101184.06;;;25.89;95.05
42621;BME280;28252;53.336;-6.298;2023-06-14T02:34:56;101179.47;;;25.90;95.02
42621;BME280;28252;53.336;-6.298;2023-06-14T02:35:30;101177.78;;;25.89;95.25
42621;BME280;28252;53.336;-6.298;2023-06-14T02:36:03;101169.78;;;25.87;95.01
42621;BME280;28252;53.336;-6.298;2023-06-14T02:36:41;101180.69;;;25.87;95.39
42621;BME280;28252;53.336;-6.298;2023-06-14T02:37:34;101180.69;;;25.87;95.06
42621;BME280;28252;53.336;-6.298;2023-06-14T02:38:06;101177.97;;;25.87;94.90
42621;BME280;28252;53.336;-6.298;2023-06-14T02:38:39;101173.56;;;25.86;95.30
42621;BME280;28252;53.336;-6.298;2023-06-14T02:39:13;101179.03;;;25.86;95.12
42621;BME280;28252;53.336;-6.298;2023-06-14T02:39:44;101179.03;;;25.86;95.04
42621;BME280;28252;53.336;-6.298;2023-06-14T02:40:16;101173.56;;;25.86;95.10
42621;BME280;28252;53.336;-6.298;2023-06-14T02:40:49;101177.31;;;25.85;95.22
42621;BME280;28252;53.336;-6.298;2023-06-14T02:41:24;101175.63;;;25.84;94.83
42621;BME280;28252;53.336;-6.298;2023-06-14T02:41:59;101176.50;;;25.85;94.80
42621;BME280;28252;53.336;-6.298;2023-06-14T02:42:35;101178.34;;;25.84;94.72
42621;BME280;28252;53.336;-6.298;2023-06-14T02:43:08;101175.63;;;25.84;94.83
42621;BME280;28252;53.336;-6.298;2023-06-14T02:43:42;101174.78;;;25.84;94.79
42621;BME280;28252;53.336;-6.298;2023-06-14T02:44:17;101175.63;;;25.84;94.94
42621;BME280;28252;53.336;-6.298;2023-06-14T02:44:52;101180.25;;;25.84;94.82
42621;BME280;28252;53.336;-6.298;2023-06-14T02:45:28;101173.75;;;25.85;94.77
42621;BME280;28252;53.336;-6.298;2023-06-14T02:45:59;101179.41;;;25.83;94.99
42621;BME280;28252;53.336;-6.298;2023-06-14T02:46:32;101174.97;;;25.82;95.06
42621;BME280;28252;53.336;-6.298;2023-06-14T02:47:09;101177.72;;;25.82;94.72
42621;BME280;28252;53.336;-6.298;2023-06-14T02:47:47;101175.81;;;25.83;94.46
42621;BME280;28252;53.336;-6.298;2023-06-14T02:48:20;101183.16;;;25.82;94.48
42621;BME280;28252;53.336;-6.298;2023-06-14T02:48:53;101172.25;;;25.82;94.63
42621;BME280;28252;53.336;-6.298;2023-06-14T02:49:27;101182.34;;;25.82;94.67
42621;BME280;28252;53.336;-6.298;2023-06-14T02:50:00;101181.50;;;25.81;94.53
42621;BME280;28252;53.336;-6.298;2023-06-14T02:50:37;101181.50;;;25.81;94.44
42621;BME280;28252;53.336;-6.298;2023-06-14T02:51:15;101183.38;;;25.81;94.87
42621;BME280;28252;53.336;-6.298;2023-06-14T02:51:48;101180.63;;;25.81;94.79
42621;BME280;28252;53.336;-6.298;2023-06-14T02:52:19;101182.53;;;25.80;94.63
42621;BME280;28252;53.336;-6.298;2023-06-14T02:52:53;101183.56;;;25.79;94.52
42621;BME280;28252;53.336;-6.298;2023-06-14T02:57:31;101186.47;;;25.78;94.45
42621;BME280;28252;53.336;-6.298;2023-06-14T02:58:03;101191.94;;;25.78;94.68
42621;BME280;28252;53.336;-6.298;2023-06-14T02:58:35;101183.97;;;25.76;94.26
42621;BME280;28252;53.336;-6.298;2023-06-14T02:59:12;101184.81;;;25.77;94.59
42621;BME280;28252;53.336;-6.298;2023-06-14T02:59:45;101186.69;;;25.76;94.29
42621;BME280;28252;53.336;-6.298;2023-06-14T03:00:16;101183.97;;;25.76;94.64
42621;BME280;28252;53.336;-6.298;2023-06-14T03:00:51;101183.97;;;25.76;94.41
42621;BME280;28252;53.336;-6.298;2023-06-14T03:01:25;101189.44;;;25.76;94.54
42621;BME280;28252;53.336;-6.298;2023-06-14T03:03:04;101190.47;;;25.75;94.85
42621;BME280;28252;53.336;-6.298;2023-06-14T03:03:36;101186.03;;;25.74;94.52
42621;BME280;28252;53.336;-6.298;2023-06-14T03:04:07;101187.72;;;25.75;94.65
42621;BME280;28252;53.336;-6.298;2023-06-14T03:04:43;101187.72;;;25.75;94.46
42621;BME280;28252;53.336;-6.298;2023-06-14T03:05:20;101186.91;;;25.75;94.57
42621;BME280;28252;53.336;-6.298;2023-06-14T03:05:53;101185.19;;;25.73;94.61
42621;BME280;28252;53.336;-6.298;2023-06-14T03:06:30;101188.75;;;25.74;94.54
42621;BME280;28252;53.336;-6.298;2023-06-14T03:07:04;101191.28;;;25.76;94.91
42621;BME280;28252;53.336;-6.298;2023-06-14T03:07:46;101193.19;;;25.75;94.74
42621;BME280;28252;53.336;-6.298;2023-06-14T03:08:21;101191.28;;;25.76;95.20
42621;BME280;28252;53.336;-6.298;2023-06-14T03:08:58;101191.28;;;25.76;94.77
42621;BME280;28252;53.336;-6.298;2023-06-14T03:09:36;101189.44;;;25.76;94.84
42621;BME280;28252;53.336;-6.298;2023-06-14T03:10:10;101183.97;;;25.76;95.27
42621;BME280;28252;53.336;-6.298;2023-06-14T03:10:48;101193.19;;;25.75;94.94
42621;BME280;28252;53.336;-6.298;2023-06-14T03:11:21;101186.91;;;25.75;94.69
42621;BME280;28252;53.336;-6.298;2023-06-14T03:11:53;101195.91;;;25.75;94.67
42621;BME280;28252;53.336;-6.298;2023-06-14T03:12:27;101187.72;;;25.75;95.12
42621;BME280;28252;53.336;-6.298;2023-06-14T03:13:01;101195.91;;;25.75;94.70
42621;BME280;28252;53.336;-6.298;2023-06-14T03:13:35;101193.19;;;25.75;94.95
42621;BME280;28252;53.336;-6.298;2023-06-14T03:14:10;101196.94;;;25.74;94.50
42621;BME280;28252;53.336;-6.298;2023-06-14T03:14:45;101194.22;;;25.74;94.60
42621;BME280;28252;53.336;-6.298;2023-06-14T03:15:23;101185.19;;;25.73;94.73
42621;BME280;28252;53.336;-6.298;2023-06-14T03:16:03;101196.94;;;25.74;94.57
42621;BME280;28252;53.336;-6.298;2023-06-14T03:16:35;101190.66;;;25.73;94.81